Forside
METAR-TAF:

METAR-TAF

Lufthavne :

Ludington, Michigan, USA

Breddekreds: 43-58N, længdekreds: 086-24W, højde: 197 m

Aktuelle vejr

Denne rapport blev lavet for 22 minutter siden, kl. 09:35 UTC
Vind 14 kt fra nord med vindstød på up til 22 kt
Temperatur 4°C
Fugtighed 93%
Tryk 1009 hPa
Sigt: 11.3 km
Overskyet i en højde af 300 ft
let regn

METAR: KLDM 230935Z AUTO 35014G22KT 7SM -RA OVC003 04/03 A2979 RMK AO2 T00380033

Tid: 05:57 (09:57 UTC)


TAF: fraværende

Vejrobservationer og prognoser fra mere end 4000 lufthavne (METAR og TAF).

De gule og røde prikker repræsenterer de meteorologiske stationer.

Flyt musen over at se navnet på stationen.

Så klik over at se vejr observationer og prognoser.

At skifte det kort: Klik på de grønne knapper med et sort kors for at zoome ind; på den grønne knap med en bindestreg for at zoome ud; eller på de grønne pile for tilstødende kort.


METAR-TAF: